createdAt,value
2018-04-04T00:01:20.969Z,12.80
2018-04-04T00:03:21.938Z,12.80
2018-04-04T00:05:22.927Z,12.80
2018-04-04T00:07:23.938Z,12.80
2018-04-04T00:09:25.295Z,12.70
2018-04-04T00:11:26.628Z,12.70
2018-04-04T00:13:27.992Z,12.70
2018-04-04T00:15:29.032Z,12.70
2018-04-04T00:17:30.171Z,12.70
2018-04-04T00:19:31.168Z,12.70
2018-04-04T00:21:32.189Z,12.70
2018-04-04T00:23:33.204Z,12.70
2018-04-04T00:25:34.197Z,12.60
2018-04-04T00:27:35.538Z,12.50
2018-04-04T00:29:36.902Z,12.50
2018-04-04T00:31:37.880Z,12.50
2018-04-04T00:33:38.848Z,12.50
2018-04-04T00:35:40.207Z,12.30
2018-04-04T00:37:41.229Z,12.30
2018-04-04T00:39:42.579Z,12.20
2018-04-04T00:41:44.064Z,12.20
2018-04-04T00:43:45.058Z,12.20
2018-04-04T00:45:46.064Z,12.20
2018-04-04T00:47:47.188Z,12.20
2018-04-04T00:49:48.189Z,12.20
2018-04-04T00:51:49.168Z,12.30
2018-04-04T00:53:50.344Z,12.30
2018-04-04T00:55:51.718Z,12.30
2018-04-04T00:57:52.733Z,12.30
2018-04-04T00:59:53.683Z,12.30
2018-04-04T01:01:54.685Z,12.30
2018-04-04T01:03:56.031Z,12.20
2018-04-04T01:05:57.387Z,12.20
2018-04-04T01:07:58.384Z,12.20
2018-04-04T01:09:59.373Z,12.10
2018-04-04T01:12:00.372Z,12.20
2018-04-04T01:14:01.725Z,12.10
2018-04-04T01:16:03.079Z,12.10
2018-04-04T01:18:04.082Z,12.10
2018-04-04T01:20:05.042Z,12.00
2018-04-04T01:22:06.421Z,12.00
2018-04-04T01:24:07.469Z,12.00
2018-04-04T01:26:08.448Z,12.00
2018-04-04T01:28:09.818Z,12.00
2018-04-04T01:30:10.834Z,12.00
2018-04-04T01:32:11.806Z,12.00
2018-04-04T01:34:12.857Z,12.00
2018-04-04T01:36:13.949Z,12.00
2018-04-04T01:38:14.932Z,12.00
2018-04-04T01:40:15.929Z,12.00
2018-04-04T01:42:16.999Z,11.90
2018-04-04T01:44:17.997Z,11.90
2018-04-04T01:46:21.988Z,11.90
2018-04-04T01:48:23.035Z,11.90
2018-04-04T01:50:24.016Z,11.90
2018-04-04T01:52:25.014Z,11.90
2018-04-04T01:54:26.025Z,11.80
2018-04-04T01:56:26.983Z,11.80
2018-04-04T01:58:27.995Z,11.90
2018-04-04T02:00:29.348Z,11.90
2018-04-04T02:02:30.304Z,11.90
2018-04-04T02:04:31.277Z,12.00
2018-04-04T02:06:32.266Z,12.00
2018-04-04T02:08:33.291Z,12.10
2018-04-04T02:10:34.254Z,12.10
2018-04-04T02:12:35.329Z,12.20
2018-04-04T02:14:36.302Z,12.30
2018-04-04T02:16:37.262Z,12.30
2018-04-04T02:18:38.253Z,12.30
2018-04-04T02:20:39.589Z,12.40
2018-04-04T02:22:40.953Z,12.40
2018-04-04T02:24:41.942Z,12.40
2018-04-04T02:26:43.045Z,12.60
2018-04-04T02:28:44.013Z,12.70
2018-04-04T02:30:45.119Z,12.80
2018-04-04T02:32:46.097Z,12.80
2018-04-04T02:34:47.057Z,12.80
2018-04-04T02:36:48.447Z,12.70
2018-04-04T02:38:49.409Z,12.70
2018-04-04T02:40:50.392Z,12.70
2018-04-04T02:42:51.413Z,12.60
2018-04-04T02:44:52.397Z,12.60
2018-04-04T02:46:53.396Z,12.60
2018-04-04T02:48:54.389Z,12.50
2018-04-04T02:50:55.372Z,12.50
2018-04-04T02:52:56.370Z,12.40
2018-04-04T02:57:01.390Z,12.40
2018-04-04T02:59:02.421Z,12.60
2018-04-04T03:01:03.470Z,12.60
2018-04-04T03:03:04.488Z,12.50
2018-04-04T03:05:05.499Z,12.50
2018-04-04T03:07:06.696Z,12.50
2018-04-04T03:09:08.055Z,12.50
2018-04-04T03:11:09.035Z,12.50
2018-04-04T03:13:10.029Z,12.50
2018-04-04T03:15:11.056Z,12.50
2018-04-04T03:17:12.229Z,12.40
2018-04-04T03:19:13.981Z,12.50
2018-04-04T03:23:18.155Z,12.50
2018-04-04T03:25:19.525Z,12.40
2018-04-04T03:27:20.666Z,12.40
2018-04-04T03:29:22.384Z,12.30
2018-04-04T03:31:23.357Z,12.30
2018-04-04T03:39:33.804Z,12.30
2018-04-04T03:53:51.746Z,12.40
2018-04-04T04:04:03.857Z,12.20
2018-04-04T04:10:10.812Z,12.10
2018-04-04T04:12:13.241Z,12.10
2018-04-04T04:14:14.711Z,12.10
2018-04-04T17:10:00.434Z,15.10
2018-04-04T19:43:57.039Z,12.60
2018-04-04T19:45:58.257Z,12.60
2018-04-04T19:48:00.394Z,12.70
2018-04-04T19:50:01.951Z,12.70
2018-04-04T19:52:03.499Z,12.60
2018-04-04T19:54:05.743Z,12.60
2018-04-04T19:56:07.008Z,12.60
2018-04-04T19:58:08.346Z,12.40
2018-04-04T20:00:12.245Z,12.30
2018-04-04T20:02:13.720Z,12.20
2018-04-04T20:04:15.232Z,12.20
2018-04-04T20:06:16.309Z,12.20
2018-04-04T20:08:17.364Z,12.10
2018-04-04T20:10:18.405Z,12.00
2018-04-04T20:12:19.801Z,12.00
2018-04-04T20:14:20.861Z,12.00
2018-04-04T20:16:25.284Z,12.10
2018-04-04T21:01:36.293Z,12.00
2018-04-04T21:03:37.486Z,11.80
2018-04-04T21:05:38.597Z,11.80
2018-04-04T21:07:39.716Z,11.90
2018-04-04T21:09:40.993Z,11.90
2018-04-04T21:11:42.117Z,11.90
2018-04-04T21:13:43.298Z,12.00
2018-04-04T21:15:44.413Z,11.90
2018-04-04T21:17:46.533Z,11.90
2018-04-04T21:19:47.683Z,11.90
2018-04-04T21:21:49.479Z,12.00
2018-04-04T21:23:51.291Z,11.90
2018-04-04T21:25:52.841Z,11.90
2018-04-04T21:27:54.577Z,11.90
2018-04-04T21:29:55.973Z,11.80
2018-04-04T21:31:58.720Z,11.80
2018-04-04T21:34:00.023Z,11.70
2018-04-04T21:36:03.309Z,11.70
2018-04-04T21:38:04.498Z,11.70
2018-04-04T21:40:08.189Z,11.60
2018-04-04T21:42:09.865Z,11.60
2018-04-04T21:44:11.515Z,11.60
2018-04-04T21:46:13.350Z,11.60
2018-04-04T21:48:18.466Z,11.70
2018-04-04T21:52:49.662Z,11.60
2018-04-04T21:54:50.866Z,11.60
2018-04-04T21:56:51.956Z,11.70
2018-04-04T21:58:54.525Z,11.60
2018-04-04T22:00:55.736Z,11.70
2018-04-04T22:02:56.874Z,11.70
2018-04-04T22:04:57.909Z,11.70
2018-04-04T22:06:59.097Z,11.70
2018-04-04T22:09:00.195Z,11.60
2018-04-04T22:11:01.277Z,11.60
2018-04-04T22:13:02.685Z,11.60
2018-04-04T22:15:03.750Z,11.60
2018-04-04T22:17:04.827Z,11.60
2018-04-04T22:19:06.926Z,11.50
2018-04-04T22:21:08.207Z,11.50
2018-04-04T22:23:09.390Z,11.50
2018-04-04T22:25:12.061Z,11.50
2018-04-04T22:27:13.345Z,11.60
2018-04-04T22:29:34.038Z,11.50
2018-04-04T22:31:35.301Z,11.50
2018-04-04T22:33:36.773Z,11.40
2018-04-04T22:35:37.884Z,11.40
2018-04-04T22:37:39.378Z,11.30
2018-04-04T22:39:40.499Z,11.30
2018-04-04T22:41:44.499Z,11.20
2018-04-04T22:43:47.212Z,11.30
2018-04-04T22:45:48.482Z,11.30
2018-04-04T22:47:53.976Z,11.30
2018-04-04T22:49:55.901Z,11.30
2018-04-04T22:51:58.141Z,11.30
2018-04-04T22:53:59.938Z,11.30
2018-04-04T22:56:01.088Z,11.20
2018-04-04T22:58:04.456Z,11.10
2018-04-04T23:00:06.023Z,11.20
2018-04-04T23:02:07.873Z,11.10
2018-04-04T23:04:09.398Z,11.10
2018-04-04T23:06:13.319Z,11.10
2018-04-04T23:08:14.690Z,11.10
2018-04-04T23:10:16.782Z,11.10
2018-04-04T23:12:18.343Z,11.10
2018-04-04T23:14:19.866Z,11.10
2018-04-04T23:16:21.018Z,11.00
2018-04-04T23:18:25.263Z,11.00
2018-04-04T23:20:28.791Z,10.90
2018-04-04T23:22:33.236Z,10.90
2018-04-04T23:24:34.703Z,10.80
2018-04-04T23:26:36.144Z,10.80
2018-04-04T23:28:37.722Z,10.80
2018-04-04T23:30:38.857Z,10.80
2018-04-04T23:32:44.686Z,10.70
2018-04-04T23:34:48.084Z,10.80
2018-04-04T23:36:49.254Z,10.70
2018-04-04T23:38:50.345Z,10.70
2018-04-04T23:40:51.860Z,10.70
2018-04-04T23:42:53.072Z,10.70
2018-04-04T23:44:54.156Z,10.70
2018-04-04T23:46:55.325Z,10.70
2018-04-04T23:48:56.613Z,10.60
2018-04-04T23:50:57.789Z,10.60
2018-04-04T23:52:59.221Z,10.50
2018-04-04T23:55:00.382Z,10.60
2018-04-04T23:57:01.558Z,10.50
2018-04-04T23:59:04.925Z,10.50
